sensor_id;sensor_type;location;lat;lon;timestamp;pressure;altitude;pressure_sealevel;temperature;humidity
45541;BME280;31265;49.680;8.608;2023-07-29T00:00:30;100005.00;;;18.41;100.00
45541;BME280;31265;49.680;8.608;2023-07-29T00:02:58;100005.00;;;18.41;100.00
45541;BME280;31265;49.680;8.608;2023-07-29T00:05:27;100006.47;;;18.42;100.00
45541;BME280;31265;49.680;8.608;2023-07-29T00:07:55;99998.75;;;18.43;100.00
45541;BME280;31265;49.680;8.608;2023-07-29T00:10:24;100006.75;;;18.48;100.00
45541;BME280;31265;49.680;8.608;2023-07-29T00:12:53;100001.13;;;18.48;100.00
45541;BME280;31265;49.680;8.608;2023-07-29T00:15:22;99996.88;;;18.47;100.00
45541;BME280;31265;49.680;8.608;2023-07-29T00:17:50;99993.63;;;18.53;100.00
45541;BME280;31265;49.680;8.608;2023-07-29T00:20:19;99993.41;;;18.63;100.00
45541;BME280;31265;49.680;8.608;2023-07-29T00:22:47;99985.50;;;18.59;100.00
45541;BME280;31265;49.680;8.608;2023-07-29T00:25:17;99983.50;;;18.62;100.00
45541;BME280;31265;49.680;8.608;2023-07-29T00:27:46;99985.50;;;18.59;100.00
45541;BME280;31265;49.680;8.608;2023-07-29T00:30:16;99986.53;;;18.66;100.00
45541;BME280;31265;49.680;8.608;2023-07-29T00:32:44;99977.28;;;18.63;100.00
45541;BME280;31265;49.680;8.608;2023-07-29T00:35:12;99975.00;;;18.60;100.00
45541;BME280;31265;49.680;8.608;2023-07-29T00:37:43;99972.09;;;18.58;100.00
45541;BME280;31265;49.680;8.608;2023-07-29T00:40:15;99971.88;;;18.54;100.00
45541;BME280;31265;49.680;8.608;2023-07-29T00:42:44;99966.47;;;18.58;100.00
45541;BME280;31265;49.680;8.608;2023-07-29T00:45:13;99963.84;;;18.62;100.00
45541;BME280;31265;49.680;8.608;2023-07-29T00:47:43;99955.63;;;18.66;100.00
45541;BME280;31265;49.680;8.608;2023-07-29T00:50:13;99953.00;;;18.70;100.00
45541;BME280;31265;49.680;8.608;2023-07-29T00:52:42;99950.59;;;18.78;100.00
45541;BME280;31265;49.680;8.608;2023-07-29T00:55:10;99948.84;;;18.71;100.00
45541;BME280;31265;49.680;8.608;2023-07-29T00:57:39;99938.97;;;18.70;100.00
45541;BME280;31265;49.680;8.608;2023-07-29T01:00:12;99940.22;;;18.67;100.00
45541;BME280;31265;49.680;8.608;2023-07-29T01:02:43;99939.47;;;18.66;100.00
45541;BME280;31265;49.680;8.608;2023-07-29T01:05:14;99941.66;;;18.68;100.00
45541;BME280;31265;49.680;8.608;2023-07-29T01:07:51;99942.94;;;18.65;100.00
45541;BME280;31265;49.680;8.608;2023-07-29T01:10:31;99935.66;;;18.60;100.00
45541;BME280;31265;49.680;8.608;2023-07-29T01:13:09;99939.81;;;18.59;100.00
45541;BME280;31265;49.680;8.608;2023-07-29T01:15:43;99945.16;;;18.53;100.00
45541;BME280;31265;49.680;8.608;2023-07-29T01:18:22;99939.34;;;18.48;100.00
45541;BME280;31265;49.680;8.608;2023-07-29T01:20:53;99938.50;;;18.46;100.00
45541;BME280;31265;49.680;8.608;2023-07-29T01:23:29;99943.41;;;18.45;100.00
45541;BME280;31265;49.680;8.608;2023-07-29T01:25:58;99939.13;;;18.44;100.00
45541;BME280;31265;49.680;8.608;2023-07-29T01:28:27;99938.06;;;18.52;100.00
45541;BME280;31265;49.680;8.608;2023-07-29T01:31:03;99928.19;;;18.51;100.00
45541;BME280;31265;49.680;8.608;2023-07-29T01:33:37;99929.66;;;18.52;100.00
45541;BME280;31265;49.680;8.608;2023-07-29T01:36:13;99938.19;;;18.54;100.00
45541;BME280;31265;49.680;8.608;2023-07-29T01:38:45;99928.47;;;18.57;100.00
45541;BME280;31265;49.680;8.608;2023-07-29T01:41:16;99924.34;;;18.58;100.00
45541;BME280;31265;49.680;8.608;2023-07-29T01:43:46;99928.78;;;18.63;100.00
45541;BME280;31265;49.680;8.608;2023-07-29T01:46:18;99920.25;;;18.61;100.00
45541;BME280;31265;49.680;8.608;2023-07-29T01:48:48;99920.97;;;18.61;100.00
45541;BME280;31265;49.680;8.608;2023-07-29T01:51:16;99917.25;;;18.57;100.00
45541;BME280;31265;49.680;8.608;2023-07-29T01:53:46;99927.63;;;18.68;100.00
45541;BME280;31265;49.680;8.608;2023-07-29T01:56:15;99924.09;;;18.67;100.00
45541;BME280;31265;49.680;8.608;2023-07-29T01:58:53;99913.19;;;18.60;100.00
45541;BME280;31265;49.680;8.608;2023-07-29T02:01:22;99908.81;;;18.57;100.00
45541;BME280;31265;49.680;8.608;2023-07-29T02:03:50;99918.41;;;18.52;100.00
45541;BME280;31265;49.680;8.608;2023-07-29T02:06:24;99918.94;;;18.48;100.00
45541;BME280;31265;49.680;8.608;2023-07-29T02:09:07;99905.72;;;18.51;100.00
45541;BME280;31265;49.680;8.608;2023-07-29T02:11:36;99905.72;;;18.51;100.00
45541;BME280;31265;49.680;8.608;2023-07-29T02:14:05;99905.00;;;18.50;100.00
45541;BME280;31265;49.680;8.608;2023-07-29T02:16:33;99895.13;;;18.49;100.00
45541;BME280;31265;49.680;8.608;2023-07-29T02:19:02;99894.59;;;18.53;100.00
45541;BME280;31265;49.680;8.608;2023-07-29T02:21:31;99891.78;;;18.53;100.00
45541;BME280;31265;49.680;8.608;2023-07-29T02:24:00;99893.78;;;18.50;100.00
45541;BME280;31265;49.680;8.608;2023-07-29T02:26:30;99901.38;;;18.47;100.00
45541;BME280;31265;49.680;8.608;2023-07-29T02:28:59;99891.19;;;18.40;100.00
45541;BME280;31265;49.680;8.608;2023-07-29T02:31:27;99899.44;;;18.36;100.00
45541;BME280;31265;49.680;8.608;2023-07-29T02:33:56;99893.91;;;18.38;100.00
45541;BME280;31265;49.680;8.608;2023-07-29T02:36:25;99903.16;;;18.41;100.00
45541;BME280;31265;49.680;8.608;2023-07-29T02:38:53;99899.63;;;18.40;100.00
45541;BME280;31265;49.680;8.608;2023-07-29T02:41:22;99903.88;;;18.41;100.00
45541;BME280;31265;49.680;8.608;2023-07-29T02:43:52;99899.91;;;18.46;100.00
45541;BME280;31265;49.680;8.608;2023-07-29T02:46:20;99894.84;;;18.43;100.00
45541;BME280;31265;49.680;8.608;2023-07-29T02:48:50;99901.19;;;18.43;100.00
45541;BME280;31265;49.680;8.608;2023-07-29T02:51:19;99896.94;;;18.42;100.00
45541;BME280;31265;49.680;8.608;2023-07-29T02:53:47;99900.44;;;18.43;100.00
45541;BME280;31265;49.680;8.608;2023-07-29T02:56:18;99898.97;;;18.42;100.00
45541;BME280;31265;49.680;8.608;2023-07-29T02:58:47;99896.38;;;18.46;100.00
45541;BME280;31265;49.680;8.608;2023-07-29T03:01:20;99898.56;;;18.47;100.00
45541;BME280;31265;49.680;8.608;2023-07-29T03:03:49;99894.19;;;18.44;100.00
45541;BME280;31265;49.680;8.608;2023-07-29T03:06:17;99887.34;;;18.47;100.00
45541;BME280;31265;49.680;8.608;2023-07-29T03:08:46;99885.75;;;18.44;100.00
45541;BME280;31265;49.680;8.608;2023-07-29T03:11:15;99887.75;;;18.42;100.00
45541;BME280;31265;49.680;8.608;2023-07-29T03:13:44;99869.06;;;18.33;100.00
45541;BME280;31265;49.680;8.608;2023-07-29T03:16:14;99861.88;;;18.30;100.00
45541;BME280;31265;49.680;8.608;2023-07-29T03:18:53;99856.19;;;18.27;100.00
45541;BME280;31265;49.680;8.608;2023-07-29T03:21:21;99858.81;;;18.23;100.00
45541;BME280;31265;49.680;8.608;2023-07-29T03:23:53;99858.69;;;18.21;100.00
45541;BME280;31265;49.680;8.608;2023-07-29T03:26:21;99858.59;;;18.19;100.00
45541;BME280;31265;49.680;8.608;2023-07-29T03:28:50;99857.97;;;18.21;100.00
45541;BME280;31265;49.680;8.608;2023-07-29T03:31:19;99856.72;;;18.24;100.00
45541;BME280;31265;49.680;8.608;2023-07-29T03:33:47;99856.09;;;18.25;100.00
45541;BME280;31265;49.680;8.608;2023-07-29T03:36:21;99861.59;;;18.23;100.00
45541;BME280;31265;49.680;8.608;2023-07-29T03:38:53;99863.47;;;18.33;100.00
45541;BME280;31265;49.680;8.608;2023-07-29T03:41:22;99862.00;;;18.32;100.00
45541;BME280;31265;49.680;8.608;2023-07-29T03:43:51;99862.41;;;18.40;100.00
45541;BME280;31265;49.680;8.608;2023-07-29T03:46:19;99860.22;;;18.38;100.00
45541;BME280;31265;49.680;8.608;2023-07-29T03:48:50;99839.81;;;18.38;100.00
45541;BME280;31265;49.680;8.608;2023-07-29T03:51:20;99845.34;;;18.36;100.00
45541;BME280;31265;49.680;8.608;2023-07-29T03:53:51;99849.91;;;18.43;100.00
45541;BME280;31265;49.680;8.608;2023-07-29T03:56:19;99851.88;;;18.40;100.00
45541;BME280;31265;49.680;8.608;2023-07-29T03:58:48;99853.31;;;18.41;100.00
45541;BME280;31265;49.680;8.608;2023-07-29T04:01:18;99848.25;;;18.38;100.00
45541;BME280;31265;49.680;8.608;2023-07-29T04:03:46;99845.19;;;18.47;100.00
45541;BME280;31265;49.680;8.608;2023-07-29T04:06:15;99853.91;;;18.54;100.00
45541;BME280;31265;49.680;8.608;2023-07-29T04:08:45;99859.63;;;18.56;100.00
45541;BME280;31265;49.680;8.608;2023-07-29T04:11:14;99854.09;;;18.58;100.00
45541;BME280;31265;49.680;8.608;2023-07-29T04:13:45;99854.72;;;18.56;100.00
45541;BME280;31265;49.680;8.608;2023-07-29T04:16:16;99860.34;;;18.56;100.00
45541;BME280;31265;49.680;8.608;2023-07-29T04:18:46;99852.56;;;18.55;100.00
45541;BME280;31265;49.680;8.608;2023-07-29T04:21:14;99856.19;;;18.57;100.00
45541;BME280;31265;49.680;8.608;2023-07-29T04:23:43;99854.09;;;18.58;100.00
45541;BME280;31265;49.680;8.608;2023-07-29T04:26:12;99857.00;;;18.60;100.00
45541;BME280;31265;49.680;8.608;2023-07-29T04:28:41;99852.31;;;18.64;100.00
45541;BME280;31265;49.680;8.608;2023-07-29T04:31:10;99841.25;;;18.68;100.00
45541;BME280;31265;49.680;8.608;2023-07-29T04:33:39;99840.53;;;18.68;100.00
45541;BME280;31265;49.680;8.608;2023-07-29T04:36:07;99837.09;;;18.69;100.00
45541;BME280;31265;49.680;8.608;2023-07-29T04:38:37;99836.53;;;18.73;100.00
45541;BME280;31265;49.680;8.608;2023-07-29T04:41:07;99842.16;;;18.73;100.00
45541;BME280;31265;49.680;8.608;2023-07-29T04:43:37;99843.59;;;18.74;100.00
45541;BME280;31265;49.680;8.608;2023-07-29T04:46:07;99838.97;;;18.65;100.00
45541;BME280;31265;49.680;8.608;2023-07-29T04:48:36;99837.81;;;18.70;100.00
45541;BME280;31265;49.680;8.608;2023-07-29T04:51:05;99848.72;;;18.78;100.00
45541;BME280;31265;49.680;8.608;2023-07-29T04:53:33;99850.97;;;18.81;100.00
45541;BME280;31265;49.680;8.608;2023-07-29T04:56:03;99851.44;;;18.91;100.00
45541;BME280;31265;49.680;8.608;2023-07-29T04:58:32;99847.91;;;18.91;100.00
45541;BME280;31265;49.680;8.608;2023-07-29T05:01:04;99851.09;;;18.99;100.00
45541;BME280;31265;49.680;8.608;2023-07-29T05:03:33;99854.00;;;19.17;100.00
45541;BME280;31265;49.680;8.608;2023-07-29T05:06:02;99862.69;;;19.23;100.00
45541;BME280;31265;49.680;8.608;2023-07-29T05:08:30;99869.41;;;19.32;100.00
45541;BME280;31265;49.680;8.608;2023-07-29T05:10:59;99867.31;;;19.32;100.00
45541;BME280;31265;49.680;8.608;2023-07-29T05:13:27;99872.84;;;19.30;100.00
45541;BME280;31265;49.680;8.608;2023-07-29T05:15:56;99880.47;;;19.28;100.00
45541;BME280;31265;49.680;8.608;2023-07-29T05:18:27;99869.97;;;19.12;100.00
45541;BME280;31265;49.680;8.608;2023-07-29T05:20:55;99882.22;;;19.19;100.00
45541;BME280;31265;49.680;8.608;2023-07-29T05:23:25;99891.72;;;19.12;100.00
45541;BME280;31265;49.680;8.608;2023-07-29T05:25:53;99883.56;;;19.02;100.00
45541;BME280;31265;49.680;8.608;2023-07-29T05:28:22;99887.00;;;19.01;100.00
45541;BME280;31265;49.680;8.608;2023-07-29T05:30:51;99879.38;;;19.03;100.00
45541;BME280;31265;49.680;8.608;2023-07-29T05:33:20;99869.59;;;19.04;100.00
45541;BME280;31265;49.680;8.608;2023-07-29T05:35:50;99870.59;;;19.11;100.00
45541;BME280;31265;49.680;8.608;2023-07-29T05:38:18;99875.22;;;19.20;100.00
45541;BME280;31265;49.680;8.608;2023-07-29T05:40:48;99877.94;;;19.18;100.00
45541;BME280;31265;49.680;8.608;2023-07-29T05:43:19;99872.22;;;19.16;100.00
45541;BME280;31265;49.680;8.608;2023-07-29T05:45:47;99866.50;;;19.30;100.00
45541;BME280;31265;49.680;8.608;2023-07-29T05:48:16;99872.59;;;19.24;100.00
45541;BME280;31265;49.680;8.608;2023-07-29T05:50:44;99876.66;;;19.21;100.00
45541;BME280;31265;49.680;8.608;2023-07-29T05:53:14;99880.22;;;19.22;100.00
45541;BME280;31265;49.680;8.608;2023-07-29T05:55:43;99887.56;;;19.13;100.00
45541;BME280;31265;49.680;8.608;2023-07-29T05:58:12;99888.28;;;18.98;100.00
45541;BME280;31265;49.680;8.608;2023-07-29T06:00:41;99888.47;;;19.02;100.00
45541;BME280;31265;49.680;8.608;2023-07-29T06:03:10;99893.88;;;18.82;100.00
45541;BME280;31265;49.680;8.608;2023-07-29T06:05:39;99888.44;;;18.86;100.00
45541;BME280;31265;49.680;8.608;2023-07-29T06:08:08;99881.94;;;18.97;100.00
45541;BME280;31265;49.680;8.608;2023-07-29T06:10:40;99893.44;;;18.87;100.00
45541;BME280;31265;49.680;8.608;2023-07-29T06:13:08;99897.78;;;18.90;100.00
45541;BME280;31265;49.680;8.608;2023-07-29T06:15:37;99879.75;;;18.96;100.00
45541;BME280;31265;49.680;8.608;2023-07-29T06:18:05;99873.59;;;18.99;100.00
45541;BME280;31265;49.680;8.608;2023-07-29T06:20:34;99875.94;;;19.05;100.00
45541;BME280;31265;49.680;8.608;2023-07-29T06:23:02;99878.41;;;18.97;100.00
45541;BME280;31265;49.680;8.608;2023-07-29T06:25:31;99873.31;;;18.93;100.00
45541;BME280;31265;49.680;8.608;2023-07-29T06:28:00;99880.75;;;19.02;100.00
45541;BME280;31265;49.680;8.608;2023-07-29T06:30:28;99879.56;;;19.07;100.00
45541;BME280;31265;49.680;8.608;2023-07-29T06:32:57;99884.56;;;19.09;100.00
45541;BME280;31265;49.680;8.608;2023-07-29T06:35:26;99879.31;;;19.17;100.00
45541;BME280;31265;49.680;8.608;2023-07-29T06:37:54;99876.13;;;19.25;100.00
45541;BME280;31265;49.680;8.608;2023-07-29T06:40:25;99875.66;;;19.30;100.00
45541;BME280;31265;49.680;8.608;2023-07-29T06:42:53;99872.69;;;19.26;100.00
45541;BME280;31265;49.680;8.608;2023-07-29T06:45:23;99878.84;;;19.23;100.00
45541;BME280;31265;49.680;8.608;2023-07-29T06:47:52;99878.09;;;19.38;100.00
45541;BME280;31265;49.680;8.608;2023-07-29T06:50:20;99874.19;;;19.45;100.00
45541;BME280;31265;49.680;8.608;2023-07-29T06:52:50;99877.38;;;19.38;100.00
45541;BME280;31265;49.680;8.608;2023-07-29T06:55:18;99886.91;;;19.46;100.00
45541;BME280;31265;49.680;8.608;2023-07-29T06:57:47;99902.06;;;19.39;100.00
45541;BME280;31265;49.680;8.608;2023-07-29T07:00:15;99911.88;;;19.22;100.00
45541;BME280;31265;49.680;8.608;2023-07-29T07:02:45;99928.13;;;19.24;100.00
45541;BME280;31265;49.680;8.608;2023-07-29T07:05:14;99911.59;;;19.16;100.00
45541;BME280;31265;49.680;8.608;2023-07-29T07:07:42;99921.50;;;19.17;100.00
45541;BME280;31265;49.680;8.608;2023-07-29T07:10:11;99923.47;;;19.15;100.00
45541;BME280;31265;49.680;8.608;2023-07-29T07:12:42;99919.47;;;19.04;100.00
45541;BME280;31265;49.680;8.608;2023-07-29T07:15:11;99930.09;;;19.05;100.00
45541;BME280;31265;49.680;8.608;2023-07-29T07:17:39;99934.69;;;18.99;100.00
45541;BME280;31265;49.680;8.608;2023-07-29T07:20:11;99931.50;;;18.90;100.00
45541;BME280;31265;49.680;8.608;2023-07-29T07:22:40;99920.72;;;18.85;100.00
45541;BME280;31265;49.680;8.608;2023-07-29T07:25:08;99929.97;;;18.87;100.00
45541;BME280;31265;49.680;8.608;2023-07-29T07:27:37;99928.78;;;18.93;100.00
45541;BME280;31265;49.680;8.608;2023-07-29T07:30:06;99921.91;;;18.96;100.00
45541;BME280;31265;49.680;8.608;2023-07-29T07:32:35;99911.84;;;18.90;100.00
45541;BME280;31265;49.680;8.608;2023-07-29T07:35:04;99910.31;;;18.74;100.00
45541;BME280;31265;49.680;8.608;2023-07-29T07:37:34;99897.25;;;18.64;100.00
45541;BME280;31265;49.680;8.608;2023-07-29T07:40:04;99906.38;;;18.79;100.00
45541;BME280;31265;49.680;8.608;2023-07-29T07:42:33;99894.41;;;18.78;100.00
45541;BME280;31265;49.680;8.608;2023-07-29T07:45:01;99916.56;;;19.02;100.00
45541;BME280;31265;49.680;8.608;2023-07-29T07:47:30;99911.16;;;19.22;100.00
45541;BME280;31265;49.680;8.608;2023-07-29T07:49:59;99917.13;;;19.46;100.00
45541;BME280;31265;49.680;8.608;2023-07-29T07:52:28;99920.03;;;19.64;100.00
45541;BME280;31265;49.680;8.608;2023-07-29T07:54:57;99922.56;;;19.58;100.00
45541;BME280;31265;49.680;8.608;2023-07-29T07:57:26;99928.03;;;19.53;100.00
45541;BME280;31265;49.680;8.608;2023-07-29T07:59:56;99924.47;;;19.53;100.00
45541;BME280;31265;49.680;8.608;2023-07-29T08:02:24;99931.19;;;19.46;100.00
45541;BME280;31265;49.680;8.608;2023-07-29T08:04:53;99936.56;;;19.40;100.00
45541;BME280;31265;49.680;8.608;2023-07-29T08:07:22;99936.75;;;19.44;100.00
45541;BME280;31265;49.680;8.608;2023-07-29T08:09:50;99931.38;;;19.50;100.00
45541;BME280;31265;49.680;8.608;2023-07-29T08:12:20;99933.56;;;19.67;100.00
45541;BME280;31265;49.680;8.608;2023-07-29T08:14:48;99916.78;;;19.69;100.00
45541;BME280;31265;49.680;8.608;2023-07-29T08:17:18;99934.00;;;19.77;100.00
45541;BME280;31265;49.680;8.608;2023-07-29T08:19:47;99926.75;;;19.88;100.00
45541;BME280;31265;49.680;8.608;2023-07-29T08:22:15;99939.25;;;20.01;100.00
45541;BME280;31265;49.680;8.608;2023-07-29T08:24:44;99929.00;;;20.26;100.00
45541;BME280;31265;49.680;8.608;2023-07-29T08:27:13;99941.31;;;20.34;100.00
45541;BME280;31265;49.680;8.608;2023-07-29T08:29:42;99935.63;;;20.50;100.00
45541;BME280;31265;49.680;8.608;2023-07-29T08:32:11;99944.59;;;20.29;100.00
45541;BME280;31265;49.680;8.608;2023-07-29T08:34:39;99937.28;;;20.39;100.00
45541;BME280;31265;49.680;8.608;2023-07-29T08:37:08;99939.91;;;20.87;100.00
45541;BME280;31265;49.680;8.608;2023-07-29T08:39:36;99940.78;;;21.10;100.00
45541;BME280;31265;49.680;8.608;2023-07-29T08:42:08;99946.63;;;21.54;100.00
45541;BME280;31265;49.680;8.608;2023-07-29T08:44:41;99955.75;;;21.92;100.00
45541;BME280;31265;49.680;8.608;2023-07-29T08:47:18;99958.16;;;21.80;100.00
45541;BME280;31265;49.680;8.608;2023-07-29T08:49:47;99959.06;;;22.26;100.00
45541;BME280;31265;49.680;8.608;2023-07-29T08:52:16;99940.34;;;22.59;100.00
45541;BME280;31265;49.680;8.608;2023-07-29T08:54:44;99947.38;;;22.58;100.00
45541;BME280;31265;49.680;8.608;2023-07-29T08:57:14;99950.47;;;22.66;100.00
45541;BME280;31265;49.680;8.608;2023-07-29T08:59:43;99952.41;;;22.84;100.00
45541;BME280;31265;49.680;8.608;2023-07-29T09:02:13;99956.91;;;23.89;100.00
45541;BME280;31265;49.680;8.608;2023-07-29T09:04:42;99950.91;;;23.77;100.00
45541;BME280;31265;49.680;8.608;2023-07-29T09:07:11;99960.53;;;23.17;100.00
45541;BME280;31265;49.680;8.608;2023-07-29T09:09:40;99961.69;;;23.58;100.00
45541;BME280;31265;49.680;8.608;2023-07-29T09:12:09;99974.16;;;24.54;100.00
45541;BME280;31265;49.680;8.608;2023-07-29T09:14:39;99966.69;;;24.38;100.00
45541;BME280;31265;49.680;8.608;2023-07-29T09:17:08;99975.41;;;23.92;100.00
45541;BME280;31265;49.680;8.608;2023-07-29T09:19:40;99977.19;;;23.31;100.00
45541;BME280;31265;49.680;8.608;2023-07-29T09:22:17;99973.59;;;23.05;100.00
45541;BME280;31265;49.680;8.608;2023-07-29T09:24:49;99971.75;;;23.64;100.00
45541;BME280;31265;49.680;8.608;2023-07-29T09:27:25;99972.00;;;24.52;100.00
45541;BME280;31265;49.680;8.608;2023-07-29T09:29:55;99963.19;;;25.00;100.00
45541;BME280;31265;49.680;8.608;2023-07-29T09:32:25;99955.13;;;24.30;100.00
45541;BME280;31265;49.680;8.608;2023-07-29T09:34:55;99957.00;;;23.93;100.00
45541;BME280;31265;49.680;8.608;2023-07-29T09:37:26;99958.56;;;23.72;100.00
45541;BME280;31265;49.680;8.608;2023-07-29T09:39:58;99951.19;;;23.87;100.00
45541;BME280;31265;49.680;8.608;2023-07-29T09:42:29;99944.56;;;23.78;100.00
45541;BME280;31265;49.680;8.608;2023-07-29T09:45:00;99945.28;;;24.33;100.00
45541;BME280;31265;49.680;8.608;2023-07-29T09:47:36;99934.44;;;25.50;100.00
45541;BME280;31265;49.680;8.608;2023-07-29T09:50:13;99929.13;;;26.52;100.00
45541;BME280;31265;49.680;8.608;2023-07-29T09:52:52;99933.13;;;26.79;100.00
45541;BME280;31265;49.680;8.608;2023-07-29T09:55:28;99929.47;;;26.72;100.00
45541;BME280;31265;49.680;8.608;2023-07-29T09:57:59;99926.31;;;27.02;100.00
45541;BME280;31265;49.680;8.608;2023-07-29T10:00:34;99915.25;;;27.23;100.00
45541;BME280;31265;49.680;8.608;2023-07-29T10:03:14;99914.25;;;26.53;100.00
45541;BME280;31265;49.680;8.608;2023-07-29T10:05:55;99905.34;;;26.31;100.00
45541;BME280;31265;49.680;8.608;2023-07-29T10:08:28;99898.72;;;25.39;100.00
45541;BME280;31265;49.680;8.608;2023-07-29T10:10:59;99896.56;;;26.59;100.00
45541;BME280;31265;49.680;8.608;2023-07-29T10:13:28;99891.25;;;26.86;100.00
45541;BME280;31265;49.680;8.608;2023-07-29T10:16:08;99896.91;;;27.38;100.00
45541;BME280;31265;49.680;8.608;2023-07-29T10:18:38;99899.09;;;29.27;100.00
45541;BME280;31265;49.680;8.608;2023-07-29T10:21:12;99896.75;;;28.89;100.00
45541;BME280;31265;49.680;8.608;2023-07-29T10:23:47;99904.91;;;29.64;100.00
45541;BME280;31265;49.680;8.608;2023-07-29T10:26:20;99914.28;;;30.24;100.00
45541;BME280;31265;49.680;8.608;2023-07-29T10:28:52;99914.28;;;30.04;100.00
45541;BME280;31265;49.680;8.608;2023-07-29T10:31:29;99906.44;;;30.33;100.00
45541;BME280;31265;49.680;8.608;2023-07-29T10:34:00;99902.88;;;30.45;100.00
45541;BME280;31265;49.680;8.608;2023-07-29T10:36:31;99903.53;;;30.84;97.79
45541;BME280;31265;49.680;8.608;2023-07-29T10:39:03;99898.56;;;30.31;100.00
45541;BME280;31265;49.680;8.608;2023-07-29T10:41:57;99894.28;;;30.36;100.00
45541;BME280;31265;49.680;8.608;2023-07-29T10:44:52;99887.78;;;30.56;95.81
45541;BME280;31265;49.680;8.608;2023-07-29T10:47:28;99884.84;;;31.01;100.00
45541;BME280;31265;49.680;8.608;2023-07-29T10:50:17;99889.84;;;31.01;100.00
45541;BME280;31265;49.680;8.608;2023-07-29T10:52:51;99880.63;;;30.70;98.25
45541;BME280;31265;49.680;8.608;2023-07-29T10:55:28;99881.41;;;30.25;99.25
45541;BME280;31265;49.680;8.608;2023-07-29T10:58:17;99877.81;;;30.00;100.00
45541;BME280;31265;49.680;8.608;2023-07-29T11:00:49;99873.47;;;30.62;97.90
45541;BME280;31265;49.680;8.608;2023-07-29T11:03:25;99872.75;;;29.62;100.00
45541;BME280;31265;49.680;8.608;2023-07-29T11:06:04;99863.84;;;28.71;100.00
45541;BME280;31265;49.680;8.608;2023-07-29T11:08:49;99853.34;;;29.11;100.00
45541;BME280;31265;49.680;8.608;2023-07-29T11:11:22;99850.94;;;28.56;100.00
45541;BME280;31265;49.680;8.608;2023-07-29T11:13:51;99856.94;;;29.13;100.00
45541;BME280;31265;49.680;8.608;2023-07-29T11:16:20;99867.75;;;29.56;100.00
45541;BME280;31265;49.680;8.608;2023-07-29T11:18:49;99859.22;;;30.42;96.39
45541;BME280;31265;49.680;8.608;2023-07-29T11:21:18;99866.38;;;30.27;90.61
45541;BME280;31265;49.680;8.608;2023-07-29T11:23:48;99859.84;;;29.38;95.60
45541;BME280;31265;49.680;8.608;2023-07-29T11:26:19;99844.84;;;29.50;100.00
45541;BME280;31265;49.680;8.608;2023-07-29T11:28:53;99839.91;;;29.99;100.00
45541;BME280;31265;49.680;8.608;2023-07-29T11:31:21;99836.59;;;31.53;96.24
45541;BME280;31265;49.680;8.608;2023-07-29T11:33:50;99847.88;;;32.62;81.87
45541;BME280;31265;49.680;8.608;2023-07-29T11:36:21;99835.50;;;32.02;83.68
45541;BME280;31265;49.680;8.608;2023-07-29T11:38:56;99842.47;;;32.27;80.10
45541;BME280;31265;49.680;8.608;2023-07-29T11:41:33;99841.72;;;32.27;85.63
45541;BME280;31265;49.680;8.608;2023-07-29T11:44:03;99841.69;;;31.40;89.93
45541;BME280;31265;49.680;8.608;2023-07-29T11:46:34;99835.41;;;31.03;81.44
45541;BME280;31265;49.680;8.608;2023-07-29T11:49:03;99836.88;;;30.96;77.10
45541;BME280;31265;49.680;8.608;2023-07-29T11:51:33;99828.47;;;30.38;82.02
45541;BME280;31265;49.680;8.608;2023-07-29T11:54:17;99826.25;;;29.24;90.00
45541;BME280;31265;49.680;8.608;2023-07-29T11:56:48;99823.22;;;28.81;91.18
45541;BME280;31265;49.680;8.608;2023-07-29T11:59:17;99828.66;;;28.38;95.98
45541;BME280;31265;49.680;8.608;2023-07-29T12:01:45;99829.56;;;28.65;98.14
45541;BME280;31265;49.680;8.608;2023-07-29T12:04:14;99826.91;;;29.10;95.96
45541;BME280;31265;49.680;8.608;2023-07-29T12:06:43;99834.22;;;29.89;86.31
45541;BME280;31265;49.680;8.608;2023-07-29T12:09:13;99820.56;;;29.28;88.88
45541;BME280;31265;49.680;8.608;2023-07-29T12:11:43;99822.72;;;29.44;85.47
45541;BME280;31265;49.680;8.608;2023-07-29T12:14:12;99818.44;;;30.46;77.84
45541;BME280;31265;49.680;8.608;2023-07-29T12:16:41;99819.13;;;30.52;82.43
45541;BME280;31265;49.680;8.608;2023-07-29T12:19:13;99821.34;;;30.15;80.53
45541;BME280;31265;49.680;8.608;2023-07-29T12:21:45;99829.88;;;29.62;86.77
45541;BME280;31265;49.680;8.608;2023-07-29T12:24:14;99816.34;;;30.03;81.39
45541;BME280;31265;49.680;8.608;2023-07-29T12:26:44;99814.16;;;30.42;71.50
45541;BME280;31265;49.680;8.608;2023-07-29T12:29:14;99817.00;;;29.38;75.97
45541;BME280;31265;49.680;8.608;2023-07-29T12:31:43;99829.66;;;28.88;81.50
45541;BME280;31265;49.680;8.608;2023-07-29T12:34:17;99835.28;;;28.69;82.79
45541;BME280;31265;49.680;8.608;2023-07-29T12:36:48;99825.25;;;28.56;78.94
45541;BME280;31265;49.680;8.608;2023-07-29T12:39:18;99824.09;;;29.23;75.19
45541;BME280;31265;49.680;8.608;2023-07-29T12:41:51;99826.75;;;28.78;74.72
45541;BME280;31265;49.680;8.608;2023-07-29T12:44:23;99831.69;;;28.59;73.34
45541;BME280;31265;49.680;8.608;2023-07-29T12:46:52;99824.13;;;29.35;70.56
45541;BME280;31265;49.680;8.608;2023-07-29T12:49:21;99839.91;;;29.61;66.78
45541;BME280;31265;49.680;8.608;2023-07-29T12:51:49;99824.88;;;29.54;69.93
45541;BME280;31265;49.680;8.608;2023-07-29T12:54:20;99841.75;;;28.78;73.74
45541;BME280;31265;49.680;8.608;2023-07-29T12:56:59;99830.22;;;28.54;75.63
45541;BME280;31265;49.680;8.608;2023-07-29T12:59:28;99832.66;;;29.23;72.77
45541;BME280;31265;49.680;8.608;2023-07-29T13:01:57;99829.84;;;29.37;68.77
45541;BME280;31265;49.680;8.608;2023-07-29T13:04:25;99832.69;;;29.35;68.12
45541;BME280;31265;49.680;8.608;2023-07-29T13:06:54;99832.00;;;29.45;73.10